LOWW/VIE METAR and TAF weather

Enter ICAO airport designator
Station Type Date Time Source
LOWW METAR 2018/12/13 05:50 UTC NOAA

LOWW 130550Z VRB01KT 7000 SCT005 OVC006 M01/M03 Q1021 R88/19//95 TEMPO OVC005


Station Type Date Time Source
LOWW Decoded METAR 2018/12/13 05:50 UTC NOAA

Wien / Schwechat-Flughafen, Austria (LOWW) 48-07N 016-34E 190M
Dec 13, 2018 - 12:50 AM EST / 2018.12.13 0550 UTC
Wind: Variable at 1 MPH (1 KT):0
Visibility: 4 mile(s):0
Sky conditions: overcast
Temperature: 30 F (-1 C)
Dew Point: 26 F (-3 C)
Relative Humidity: 86%
Pressure (altimeter): 30.15 in. Hg (1021 hPa)
ob: LOWW 130550Z VRB01KT 7000 SCT005 OVC006 M01/M03 Q1021 R88/19//95 TEMPO OVC005
cycle: 6

Station Type Date Time Source
LOWW TAF 2018/12/13 06:19 UTC NOAA

TAF LOWW 130515Z 1306/1412 02003KT 7000 OVC007 TX01/1412Z TNM03/1401Z
TEMPO 1306/1309 4000 BR FEW002 BKN004
BECMG 1310/1312 08005KT FEW007 OVC012
FM131800 12005KT 4000 BR FEW003 OVC007
TEMPO 1322/1408 2000 FEW002 OVC003 PROB30
TEMPO 1400/1407 1200 FZBCFG BKN002
BECMG 1410/1412 5000 FEW007 BKN012


Example: see airport list